OMD196 KMCO-KMZJ
Flight info
| Callsign | OMD196 |
|---|---|
| Flight time | N/A |
| Altitude | 32000 |
| Route | RDSOX1 JFRYS PATOY Q116 JAWJA CABLO DEFUN J2 IAH J86 ELP J2 TUS |
| Aircraft | A21N/M-SDE2E3FGHIRWXY/LB1 |
Departure
| Time | 2026-05-06 20:20 |
|---|---|
| Airport | Orlando International Airport (KMCO) |
Arrival
| Time | N/A |
|---|---|
| Airport | Pinal Airpark (KMZJ) |
| Time | Latitude | Longitude | Altitude | Speed | Heading |
|---|---|---|---|---|---|
| 2026-05-06 19:56 | 28.43847 | -81.33026 | 103 ft | 0 kts | 358° |
| 2026-05-06 20:16 | 28.43849 | -81.33026 | 103 ft | 1 kts | 358° |
| 2026-05-06 20:16 | 28.43870 | -81.33012 | 102 ft | 5 kts | 38° |
| 2026-05-06 20:16 | 28.43904 | -81.32978 | 103 ft | 8 kts | 41° |
| 2026-05-06 20:17 | 28.43954 | -81.32934 | 103 ft | 11 kts | 29° |
| 2026-05-06 20:17 | 28.44026 | -81.32890 | 103 ft | 13 kts | 28° |
| 2026-05-06 20:17 | 28.44119 | -81.32865 | 103 ft | 15 kts | 0° |
| 2026-05-06 20:17 | 28.44232 | -81.32865 | 103 ft | 17 kts | 360° |
| 2026-05-06 20:18 | 28.44361 | -81.32865 | 104 ft | 20 kts | 360° |
| 2026-05-06 20:18 | 28.44482 | -81.32866 | 104 ft | 9 kts | 360° |
| 2026-05-06 20:18 | 28.44555 | -81.32866 | 104 ft | 12 kts | 359° |
| 2026-05-06 20:18 | 28.44645 | -81.32867 | 104 ft | 14 kts | 359° |
| 2026-05-06 20:19 | 28.44751 | -81.32869 | 105 ft | 16 kts | 359° |
| 2026-05-06 20:19 | 28.44813 | -81.32833 | 106 ft | 5 kts | 80° |
| 2026-05-06 20:19 | 28.44815 | -81.32785 | 106 ft | 8 kts | 89° |
| 2026-05-06 20:19 | 28.44804 | -81.32718 | 105 ft | 7 kts | 131° |
| 2026-05-06 20:20 | 28.44748 | -81.32699 | 107 ft | 10 kts | 177° |
| 2026-05-06 20:20 | 28.44532 | -81.32697 | 106 ft | 73 kts | 179° |
| 2026-05-06 20:20 | 28.43666 | -81.32687 | 105 ft | 179 kts | 179° |
| 2026-05-06 20:20 | 28.42302 | -81.32667 | 1371 ft | 189 kts | 178° |
| 2026-05-06 20:21 | 28.41092 | -81.32664 | 3067 ft | 158 kts | 184° |
| 2026-05-06 20:21 | 28.40103 | -81.32780 | 4147 ft | 136 kts | 189° |
| 2026-05-06 20:21 | 28.39191 | -81.33097 | 4882 ft | 142 kts | 197° |
| 2026-05-06 20:21 | 28.38206 | -81.33428 | 5609 ft | 151 kts | 194° |
| 2026-05-06 20:22 | 28.37162 | -81.33777 | 6232 ft | 160 kts | 199° |
| 2026-05-06 20:22 | 28.36135 | -81.34279 | 6863 ft | 162 kts | 207° |
| 2026-05-06 20:22 | 28.35177 | -81.34950 | 7618 ft | 160 kts | 218° |
| 2026-05-06 20:22 | 28.34518 | -81.36013 | 8166 ft | 186 kts | 257° |
| 2026-05-06 20:23 | 28.34547 | -81.37594 | 8270 ft | 218 kts | 285° |
| 2026-05-06 20:23 | 28.34972 | -81.39329 | 8599 ft | 244 kts | 289° |
| 2026-05-06 20:23 | 28.35453 | -81.41278 | 9050 ft | 267 kts | 285° |
| 2026-05-06 20:23 | 28.35874 | -81.43396 | 9630 ft | 283 kts | 283° |
| 2026-05-06 20:24 | 28.36252 | -81.45602 | 10280 ft | 296 kts | 282° |
| 2026-05-06 20:24 | 28.36611 | -81.47907 | 10649 ft | 316 kts | 281° |
| 2026-05-06 20:24 | 28.36987 | -81.50455 | 11023 ft | 337 kts | 281° |
| 2026-05-06 20:24 | 28.37370 | -81.53152 | 11428 ft | 354 kts | 280° |
| 2026-05-06 20:25 | 28.37761 | -81.55979 | 11889 ft | 369 kts | 280° |
| 2026-05-06 20:25 | 28.38157 | -81.58886 | 12557 ft | 375 kts | 280° |
| 2026-05-06 20:25 | 28.38555 | -81.61832 | 13327 ft | 379 kts | 280° |
| 2026-05-06 20:25 | 28.38955 | -81.64809 | 14093 ft | 383 kts | 280° |
| 2026-05-06 20:26 | 28.39357 | -81.67804 | 14801 ft | 385 kts | 280° |
| 2026-05-06 20:26 | 28.39756 | -81.70786 | 15514 ft | 387 kts | 280° |
| 2026-05-06 20:26 | 28.40161 | -81.73815 | 16224 ft | 389 kts | 280° |
| 2026-05-06 20:26 | 28.40568 | -81.76864 | 16921 ft | 392 kts | 279° |
| 2026-05-06 20:27 | 28.40978 | -81.79933 | 17605 ft | 394 kts | 279° |
| 2026-05-06 20:27 | 28.41390 | -81.83030 | 18271 ft | 398 kts | 279° |
| 2026-05-06 20:27 | 28.41806 | -81.86154 | 18869 ft | 400 kts | 279° |
| 2026-05-06 20:27 | 28.42218 | -81.89275 | 19486 ft | 401 kts | 279° |
| 2026-05-06 20:28 | 28.42564 | -81.92423 | 20131 ft | 402 kts | 275° |
| 2026-05-06 20:28 | 28.42651 | -81.95600 | 20773 ft | 402 kts | 272° |
| 2026-05-06 20:28 | 28.42700 | -81.98784 | 21376 ft | 404 kts | 272° |
| 2026-05-06 20:28 | 28.42745 | -82.01979 | 21961 ft | 405 kts | 272° |
| 2026-05-06 20:29 | 28.42793 | -82.05151 | 22546 ft | 407 kts | 273° |
| 2026-05-06 20:29 | 28.42844 | -82.08365 | 23140 ft | 408 kts | 273° |
| 2026-05-06 20:29 | 28.42892 | -82.11604 | 23708 ft | 410 kts | 273° |
| 2026-05-06 20:29 | 28.42944 | -82.14852 | 24190 ft | 412 kts | 273° |
| 2026-05-06 20:30 | 28.42994 | -82.18122 | 24656 ft | 414 kts | 273° |
| 2026-05-06 20:30 | 28.43092 | -82.24649 | 25553 ft | 418 kts | 273° |
| 2026-05-06 20:30 | 28.43139 | -82.27969 | 26005 ft | 420 kts | 273° |
| 2026-05-06 20:31 | 28.43187 | -82.31294 | 26458 ft | 423 kts | 273° |
| 2026-05-06 20:31 | 28.43234 | -82.34649 | 26905 ft | 425 kts | 272° |
| 2026-05-06 20:31 | 28.43302 | -82.38019 | 27329 ft | 427 kts | 275° |
| 2026-05-06 20:31 | 28.43703 | -82.41366 | 27727 ft | 428 kts | 283° |
| 2026-05-06 20:32 | 28.44639 | -82.44563 | 28226 ft | 427 kts | 293° |
| 2026-05-06 20:32 | 28.46089 | -82.47499 | 28808 ft | 427 kts | 303° |
| 2026-05-06 20:32 | 28.47985 | -82.50081 | 29430 ft | 427 kts | 312° |
| 2026-05-06 20:32 | 28.50285 | -82.52241 | 30001 ft | 429 kts | 321° |
| 2026-05-06 20:33 | 28.52790 | -82.54016 | 30453 ft | 430 kts | 325° |
| 2026-05-06 20:33 | 28.55384 | -82.55714 | 30915 ft | 428 kts | 326° |
| 2026-05-06 20:33 | 28.57970 | -82.57401 | 31380 ft | 426 kts | 325° |
| 2026-05-06 20:33 | 28.60532 | -82.59091 | 31837 ft | 424 kts | 325° |
| 2026-05-06 20:34 | 28.63075 | -82.60785 | 32288 ft | 422 kts | 325° |
| 2026-05-06 20:34 | 28.65559 | -82.62457 | 32721 ft | 420 kts | 324° |
| 2026-05-06 20:34 | 28.68072 | -82.64155 | 33156 ft | 418 kts | 324° |
| 2026-05-06 20:34 | 28.70570 | -82.65837 | 33584 ft | 416 kts | 324° |
| 2026-05-06 20:35 | 28.73059 | -82.67514 | 33995 ft | 415 kts | 324° |
| 2026-05-06 20:35 | 28.75538 | -82.69186 | 34356 ft | 413 kts | 324° |
| 2026-05-06 20:35 | 28.78007 | -82.70850 | 34738 ft | 411 kts | 324° |
| 2026-05-06 20:35 | 28.80467 | -82.72493 | 35086 ft | 409 kts | 324° |
| 2026-05-06 20:36 | 28.82914 | -82.74130 | 35396 ft | 408 kts | 324° |
| 2026-05-06 20:36 | 28.85358 | -82.75770 | 35677 ft | 407 kts | 324° |
| 2026-05-06 20:36 | 28.87795 | -82.77411 | 35963 ft | 407 kts | 324° |
| 2026-05-06 20:36 | 28.90231 | -82.79052 | 36217 ft | 406 kts | 324° |
| 2026-05-06 20:37 | 28.92636 | -82.80674 | 36455 ft | 407 kts | 324° |
| 2026-05-06 20:37 | 28.95069 | -82.82317 | 36682 ft | 406 kts | 324° |
| 2026-05-06 20:37 | 28.97510 | -82.83965 | 36942 ft | 406 kts | 324° |
| 2026-05-06 20:37 | 28.99935 | -82.85602 | 37188 ft | 405 kts | 324° |
| 2026-05-06 20:38 | 29.02365 | -82.87244 | 37430 ft | 405 kts | 324° |
| 2026-05-06 20:38 | 29.04781 | -82.88880 | 37668 ft | 404 kts | 323° |
| 2026-05-06 20:38 | 29.07156 | -82.90587 | 37910 ft | 401 kts | 320° |
| 2026-05-06 20:38 | 29.09428 | -82.92426 | 38088 ft | 401 kts | 319° |
| 2026-05-06 20:39 | 29.11699 | -82.94284 | 38103 ft | 401 kts | 319° |
| 2026-05-06 20:39 | 29.16239 | -82.98014 | 38077 ft | 401 kts | 319° |
| 2026-05-06 20:40 | 29.20756 | -83.01714 | 38072 ft | 401 kts | 319° |
| 2026-05-06 20:40 | 29.25303 | -83.05434 | 38070 ft | 401 kts | 319° |
| 2026-05-06 20:41 | 29.29849 | -83.09160 | 38069 ft | 401 kts | 319° |
| 2026-05-06 20:41 | 29.34396 | -83.12887 | 38072 ft | 402 kts | 319° |
| 2026-05-06 20:42 | 29.38937 | -83.16612 | 38078 ft | 401 kts | 318° |
| 2026-05-06 20:42 | 29.43459 | -83.20321 | 38075 ft | 402 kts | 318° |
| 2026-05-06 20:43 | 29.48005 | -83.24060 | 38068 ft | 402 kts | 318° |
| 2026-05-06 20:43 | 29.52547 | -83.27801 | 38070 ft | 402 kts | 318° |
| 2026-05-06 20:44 | 29.57086 | -83.31541 | 38082 ft | 402 kts | 318° |
| 2026-05-06 20:44 | 29.61601 | -83.35271 | 38079 ft | 402 kts | 318° |
| 2026-05-06 20:45 | 29.66148 | -83.39026 | 38086 ft | 402 kts | 318° |
| 2026-05-06 20:45 | 29.70673 | -83.42771 | 38086 ft | 400 kts | 318° |
| 2026-05-06 20:46 | 29.75190 | -83.46519 | 38071 ft | 400 kts | 317° |
| 2026-05-06 20:46 | 29.79677 | -83.50240 | 38075 ft | 400 kts | 318° |
| 2026-05-06 20:47 | 29.84190 | -83.53985 | 38076 ft | 400 kts | 317° |
| 2026-05-06 20:47 | 29.88715 | -83.57748 | 38082 ft | 401 kts | 317° |
| 2026-05-06 20:48 | 29.93245 | -83.61513 | 38083 ft | 401 kts | 317° |
| 2026-05-06 20:48 | 29.97743 | -83.65261 | 38104 ft | 401 kts | 317° |
| 2026-05-06 20:49 | 30.02264 | -83.69028 | 38091 ft | 401 kts | 317° |
| 2026-05-06 20:49 | 30.06788 | -83.72808 | 38088 ft | 401 kts | 317° |
| 2026-05-06 20:50 | 30.11305 | -83.76576 | 38083 ft | 400 kts | 317° |
| 2026-05-06 20:50 | 30.15800 | -83.80386 | 38076 ft | 398 kts | 314° |
| 2026-05-06 20:51 | 30.19422 | -83.85012 | 38070 ft | 387 kts | 300° |
| 2026-05-06 20:51 | 30.22450 | -83.90161 | 38064 ft | 387 kts | 300° |
| 2026-05-06 20:52 | 30.25486 | -83.95313 | 38059 ft | 388 kts | 300° |
| 2026-05-06 20:52 | 30.28526 | -84.00456 | 38069 ft | 385 kts | 299° |
| 2026-05-06 20:53 | 30.31541 | -84.05572 | 38072 ft | 385 kts | 299° |
| 2026-05-06 20:53 | 30.34572 | -84.10691 | 38058 ft | 385 kts | 299° |
| 2026-05-06 20:54 | 30.37599 | -84.15811 | 38059 ft | 385 kts | 299° |
| 2026-05-06 20:54 | 30.40604 | -84.20912 | 38053 ft | 385 kts | 299° |
| 2026-05-06 20:55 | 30.43623 | -84.26043 | 38064 ft | 385 kts | 299° |
| 2026-05-06 20:55 | 30.46644 | -84.31180 | 38072 ft | 385 kts | 299° |
| 2026-05-06 20:56 | 30.49145 | -84.35442 | 38068 ft | 385 kts | 299° |
| 2026-05-06 20:56 | 30.52623 | -84.41427 | 38047 ft | 383 kts | 296° |
| 2026-05-06 20:57 | 30.54211 | -84.46131 | 38036 ft | 376 kts | 281° |
| 2026-05-06 20:57 | 30.54873 | -84.52144 | 38045 ft | 375 kts | 273° |
| 2026-05-06 20:58 | 30.54847 | -84.58210 | 38048 ft | 376 kts | 270° |
| 2026-05-06 20:58 | 30.54739 | -84.64270 | 38044 ft | 376 kts | 270° |
| 2026-05-06 20:59 | 30.54640 | -84.70334 | 38046 ft | 375 kts | 270° |
| 2026-05-06 20:59 | 30.54541 | -84.76341 | 38052 ft | 374 kts | 270° |
| 2026-05-06 21:00 | 30.54441 | -84.82380 | 38044 ft | 374 kts | 270° |
| 2026-05-06 21:00 | 30.54336 | -84.88421 | 38044 ft | 374 kts | 270° |
| 2026-05-06 21:01 | 30.54230 | -84.94461 | 38058 ft | 374 kts | 269° |
| 2026-05-06 21:01 | 30.54121 | -85.00505 | 38045 ft | 374 kts | 269° |
| 2026-05-06 21:02 | 30.54010 | -85.06513 | 38044 ft | 374 kts | 269° |
| 2026-05-06 21:02 | 30.53894 | -85.12552 | 38033 ft | 374 kts | 269° |
| 2026-05-06 21:03 | 30.53778 | -85.18592 | 38038 ft | 374 kts | 269° |
| 2026-05-06 21:03 | 30.53657 | -85.24639 | 38046 ft | 374 kts | 269° |
| 2026-05-06 21:04 | 30.53534 | -85.30678 | 38056 ft | 374 kts | 269° |
| 2026-05-06 21:04 | 30.53408 | -85.36677 | 38064 ft | 374 kts | 269° |
| 2026-05-06 21:05 | 30.53280 | -85.42714 | 38070 ft | 374 kts | 269° |
| 2026-05-06 21:05 | 30.53148 | -85.48741 | 38067 ft | 373 kts | 269° |
| 2026-05-06 21:06 | 30.53014 | -85.54764 | 38055 ft | 373 kts | 269° |
| 2026-05-06 21:06 | 30.52878 | -85.60784 | 38046 ft | 373 kts | 269° |
| 2026-05-06 21:07 | 30.52740 | -85.66773 | 38049 ft | 373 kts | 269° |
| 2026-05-06 21:07 | 30.52598 | -85.72804 | 38047 ft | 373 kts | 269° |
| 2026-05-06 21:08 | 30.52453 | -85.78821 | 38054 ft | 373 kts | 269° |
| 2026-05-06 21:08 | 30.52305 | -85.84809 | 38053 ft | 373 kts | 269° |
| 2026-05-06 21:09 | 30.52154 | -85.90827 | 38056 ft | 373 kts | 269° |
| 2026-05-06 21:09 | 30.52002 | -85.96853 | 38058 ft | 373 kts | 269° |
| 2026-05-06 21:10 | 30.51845 | -86.02868 | 38060 ft | 373 kts | 269° |
| 2026-05-06 21:10 | 30.51686 | -86.08889 | 38062 ft | 373 kts | 269° |
| 2026-05-06 21:11 | 30.51525 | -86.14912 | 38064 ft | 373 kts | 269° |
| 2026-05-06 21:11 | 30.51359 | -86.20924 | 38052 ft | 373 kts | 269° |
| 2026-05-06 21:12 | 30.51193 | -86.26926 | 38046 ft | 372 kts | 269° |
| 2026-05-06 21:12 | 30.51026 | -86.32883 | 38043 ft | 372 kts | 269° |
| 2026-05-06 21:13 | 30.50854 | -86.38890 | 38031 ft | 372 kts | 269° |
| 2026-05-06 21:13 | 30.50680 | -86.44891 | 38030 ft | 372 kts | 269° |
| 2026-05-06 21:14 | 30.50503 | -86.50868 | 38030 ft | 372 kts | 269° |
| 2026-05-06 21:14 | 30.50322 | -86.56870 | 38027 ft | 372 kts | 268° |
| 2026-05-06 21:15 | 30.50138 | -86.62872 | 38038 ft | 372 kts | 268° |
| 2026-05-06 21:15 | 30.49951 | -86.68883 | 38039 ft | 373 kts | 268° |
| 2026-05-06 21:16 | 30.49764 | -86.74896 | 38041 ft | 373 kts | 268° |
| 2026-05-06 21:16 | 30.49572 | -86.80869 | 38038 ft | 373 kts | 268° |
| 2026-05-06 21:17 | 30.49379 | -86.86877 | 38040 ft | 373 kts | 268° |
| 2026-05-06 21:17 | 30.49182 | -86.92895 | 38039 ft | 373 kts | 268° |
| 2026-05-06 21:18 | 30.48984 | -86.98870 | 38033 ft | 374 kts | 268° |
| 2026-05-06 21:18 | 30.48781 | -87.04906 | 38045 ft | 374 kts | 268° |
| 2026-05-06 21:19 | 30.48574 | -87.10948 | 38023 ft | 374 kts | 268° |
| 2026-05-06 21:19 | 30.48367 | -87.16948 | 38019 ft | 374 kts | 268° |
| 2026-05-06 21:20 | 30.48155 | -87.22992 | 38037 ft | 375 kts | 268° |
| 2026-05-06 21:20 | 30.47940 | -87.29035 | 38026 ft | 374 kts | 268° |
| 2026-05-06 21:21 | 30.47723 | -87.35045 | 38025 ft | 375 kts | 268° |
| 2026-05-06 21:21 | 30.47501 | -87.41096 | 38028 ft | 376 kts | 268° |
| 2026-05-06 21:22 | 30.47303 | -87.46453 | 38033 ft | 376 kts | 268° |
| 2026-05-06 21:22 | 30.47077 | -87.52519 | 38029 ft | 376 kts | 268° |
| 2026-05-06 21:23 | 30.46848 | -87.58575 | 38031 ft | 376 kts | 268° |
| 2026-05-06 21:23 | 30.46617 | -87.64595 | 38033 ft | 376 kts | 268° |
| 2026-05-06 21:24 | 30.46381 | -87.70665 | 38033 ft | 376 kts | 267° |
| 2026-05-06 21:24 | 30.46144 | -87.76736 | 38013 ft | 376 kts | 267° |
| 2026-05-06 21:25 | 30.45902 | -87.82808 | 38017 ft | 377 kts | 267° |
| 2026-05-06 21:25 | 30.45660 | -87.88832 | 38014 ft | 377 kts | 267° |
| 2026-05-06 21:26 | 30.45415 | -87.94901 | 38018 ft | 376 kts | 267° |
| 2026-05-06 21:26 | 30.45166 | -88.00967 | 38017 ft | 376 kts | 267° |
| 2026-05-06 21:27 | 30.44912 | -88.07038 | 38019 ft | 376 kts | 267° |
| 2026-05-06 21:27 | 30.44661 | -88.13059 | 38007 ft | 377 kts | 267° |
| 2026-05-06 21:28 | 30.44445 | -88.18147 | 38002 ft | 377 kts | 267° |